»·PEaware :: UAL1672 KBIL-KBOI

UAL1672 :: KBIL-KBOI

FLIGHT INFORMATION

Flight Status: Arrived
Operator:
United Airlines
More flights by this operator :: More flights under this callsign
Pilot: Chuck O. (4337)
Aircraft: AIRBUS A319
(A319)
More flights by this aircraft type
Origin: KBIL Billings Logan Intl
United States
Destination: KBOI Boise Air Terminal/Gowen
United States
More flights between these airports :: More routes between these airports
Route: BIL DBS BOI
File this flight plan on PilotEdge
Remarks: BIL5
Altitude:
(Current/Filed)
32,000ft
Speed:
(Current/Filed)
456kts
Departed: 15-Dec-18 01:30 PM
Arrived: 15-Dec-18 02:40 PM
Distance/Time
Traveled:
354nm/1:09
Distance/Time
To Go:
Arrived

Flight Plot

Page will automatically refresh every two minutes.

Flight plan parsing failed; only flown route is shown


Map Options




Map Legend


Flown Route
Filed Route
Departure Airport
Arrival Airport
Navaid (VOR, NDB)
Fix

Horizontal Profiles

Position Reports

Time Latitude Longitude Heading Altitude Ground
Speed
15-Dec-18 12:58 45.804096 -108.537546 178 3594ft 0kts
15-Dec-18 12:59 45.804096 -108.537546 178 3594ft 0kts
15-Dec-18 13:00 45.804096 -108.537546 178 3594ft 0kts
15-Dec-18 13:01 45.804096 -108.537546 178 3594ft 0kts
15-Dec-18 13:02 45.804096 -108.537546 178 3594ft 0kts
15-Dec-18 13:03 45.804096 -108.537546 178 3594ft 0kts
15-Dec-18 13:04 45.804096 -108.537546 178 3594ft 0kts
15-Dec-18 13:05 45.804096 -108.537546 178 3594ft 0kts
15-Dec-18 13:06 45.804096 -108.537546 178 3594ft 0kts
15-Dec-18 13:07 45.804096 -108.537546 178 3594ft 0kts
15-Dec-18 13:08 45.804096 -108.537546 178 3594ft 0kts
15-Dec-18 13:09 45.804096 -108.537546 178 3594ft 0kts
15-Dec-18 13:10 45.804096 -108.537546 178 3594ft 0kts
15-Dec-18 13:11 45.804244 -108.537555 173 3594ft 2kts
15-Dec-18 13:12 45.804906 -108.538046 142 3594ft 4kts
15-Dec-18 13:13 45.804931 -108.538072 143 3594ft 0kts
15-Dec-18 13:14 45.804931 -108.538072 143 3594ft 0kts
15-Dec-18 13:15 45.804931 -108.538072 143 3594ft 0kts
15-Dec-18 13:16 45.804931 -108.538072 143 3594ft 0kts
15-Dec-18 13:17 45.804930 -108.538071 143 3594ft 0kts
15-Dec-18 13:18 45.804929 -108.538070 143 3594ft 0kts
15-Dec-18 13:19 45.804928 -108.538070 143 3594ft 0kts
15-Dec-18 13:20 45.804777 -108.537809 105 3594ft 8kts
15-Dec-18 13:21 45.804892 -108.537422 48 3594ft 0kts
15-Dec-18 13:22 45.804793 -108.531389 95 3594ft 29kts
15-Dec-18 13:23 45.801938 -108.519995 96 3594ft 29kts
15-Dec-18 13:24 45.801659 -108.517389 77 3594ft 0kts
15-Dec-18 13:25 45.801659 -108.517388 77 3594ft 0kts
15-Dec-18 13:26 45.801659 -108.517386 77 3594ft 0kts
15-Dec-18 13:27 45.801660 -108.517385 77 3594ft 0kts
15-Dec-18 13:28 45.802357 -108.517561 299 3594ft 2kts
15-Dec-18 13:29 45.811092 -108.548954 290 4145ft 153kts
15-Dec-18 13:30 45.829935 -108.612983 291 6037ft 208kts
15-Dec-18 13:31 45.856967 -108.699725 291 7041ft 251kts
15-Dec-18 13:32 45.865763 -108.795879 242 9745ft 259kts
15-Dec-18 13:33 45.820570 -108.885609 240 11940ft 307kts
15-Dec-18 13:34 45.768234 -108.991893 240 14122ft 335kts
15-Dec-18 13:35 45.713626 -109.102373 240 16117ft 345kts
15-Dec-18 13:36 45.657131 -109.216265 239 18368ft 357kts
15-Dec-18 13:37 45.598336 -109.334376 239 20431ft 370kts
15-Dec-18 13:38 45.537460 -109.455983 239 22352ft 380kts
15-Dec-18 13:39 45.474760 -109.580862 239 24022ft 392kts
15-Dec-18 13:40 45.410649 -109.707966 240 25605ft 399kts
15-Dec-18 13:41 45.345117 -109.837230 240 27066ft 405kts
15-Dec-18 13:42 45.278563 -109.967990 240 28425ft 411kts
15-Dec-18 13:43 45.212252 -110.097523 241 30313ft 399kts
15-Dec-18 13:44 45.146790 -110.224941 241 31669ft 399kts
15-Dec-18 13:45 45.081261 -110.351932 241 32126ft 400kts
15-Dec-18 13:46 45.015142 -110.479473 241 32153ft 401kts
15-Dec-18 13:47 44.949121 -110.606271 240 32176ft 401kts
15-Dec-18 13:48 44.882876 -110.732909 240 32166ft 402kts
15-Dec-18 13:49 44.827855 -110.837707 240 32197ft 402kts
15-Dec-18 13:50 44.761527 -110.963495 240 32232ft 403kts
15-Dec-18 13:51 44.694781 -111.089564 240 32237ft 402kts
15-Dec-18 13:52 44.627528 -111.215964 240 32219ft 402kts
15-Dec-18 13:53 44.560889 -111.340674 240 32239ft 400kts
15-Dec-18 13:54 44.493776 -111.465802 240 32166ft 400kts
15-Dec-18 13:55 44.427228 -111.589304 239 32175ft 399kts
15-Dec-18 13:56 44.360253 -111.713079 239 32197ft 400kts
15-Dec-18 13:57 44.293475 -111.835973 239 32253ft 401kts
15-Dec-18 13:58 44.225703 -111.960102 239 32293ft 401kts
15-Dec-18 13:59 44.158164 -112.083311 239 32292ft 400kts
15-Dec-18 14:00 44.093604 -112.208663 250 32247ft 391kts
15-Dec-18 14:01 44.072027 -112.353110 264 32200ft 382kts
15-Dec-18 14:02 44.054799 -112.498817 263 32210ft 382kts
15-Dec-18 14:03 44.037423 -112.644839 263 32200ft 384kts
15-Dec-18 14:04 44.019710 -112.791262 263 32278ft 383kts
15-Dec-18 14:05 44.001849 -112.937434 263 32279ft 384kts
15-Dec-18 14:06 43.983821 -113.083565 263 32254ft 382kts
15-Dec-18 14:07 43.965696 -113.228843 262 32186ft 383kts
15-Dec-18 14:08 43.947176 -113.375445 262 32182ft 389kts
15-Dec-18 14:09 43.928275 -113.523815 262 32251ft 393kts
15-Dec-18 14:10 43.908932 -113.673571 262 32269ft 392kts
15-Dec-18 14:11 43.889742 -113.821016 261 32264ft 386kts
15-Dec-18 14:12 43.870633 -113.966031 261 32203ft 379kts
15-Dec-18 14:13 43.851635 -114.108791 261 30064ft 378kts
15-Dec-18 14:14 43.832543 -114.250867 261 27499ft 371kts
15-Dec-18 14:15 43.813804 -114.388972 260 25168ft 360kts
15-Dec-18 14:16 43.795460 -114.523147 260 22898ft 349kts
15-Dec-18 14:17 43.777587 -114.652578 259 20756ft 336kts
15-Dec-18 14:18 43.760168 -114.777410 258 18586ft 323kts
15-Dec-18 14:19 43.743294 -114.897645 258 16998ft 318kts
15-Dec-18 14:20 43.726191 -115.018554 258 17003ft 319kts
15-Dec-18 14:21 43.710095 -115.139068 261 17004ft 319kts
15-Dec-18 14:22 43.698656 -115.260110 261 16165ft 314kts
15-Dec-18 14:23 43.687018 -115.378677 261 14214ft 308kts
15-Dec-18 14:24 43.675463 -115.495259 261 12307ft 303kts
15-Dec-18 14:25 43.663952 -115.610404 261 11992ft 304kts
15-Dec-18 14:26 43.652309 -115.725622 261 11664ft 297kts
15-Dec-18 14:27 43.641073 -115.835969 260 10619ft 272kts
15-Dec-18 14:28 43.630506 -115.938324 260 9495ft 259kts
15-Dec-18 14:29 43.623687 -116.004072 257 10657ft 177kts
15-Dec-18 14:31 43.618685 -116.133969 274 8163ft 398kts
15-Dec-18 14:32 43.657898 -116.266738 297 6301ft 360kts
15-Dec-18 14:33 43.700481 -116.380660 296 5661ft 274kts
15-Dec-18 14:34 43.712017 -116.472935 226 7403ft 205kts
15-Dec-18 14:35 43.675860 -116.450568 123 6947ft 190kts
15-Dec-18 14:36 43.644202 -116.386825 118 4509ft 182kts
15-Dec-18 14:37 43.614196 -116.344262 136 3633ft 138kts
15-Dec-18 14:38 43.590975 -116.301422 116 3376ft 130kts
15-Dec-18 14:39 43.575053 -116.256964 116 3062ft 136kts
15-Dec-18 14:40 43.563972 -116.224536 87 2848ft 10kts
15-Dec-18 14:41 43.566100 -116.223356 8 2848ft 14kts
15-Dec-18 14:42 43.566894 -116.219673 24 2848ft 1kts
15-Dec-18 14:43 43.566903 -116.219667 24 2848ft 0kts
15-Dec-18 14:44 43.566903 -116.219667 24 2848ft 0kts
15-Dec-18 14:45 43.566903 -116.219667 24 2848ft 0kts
15-Dec-18 14:46 43.566903 -116.219667 24 2848ft 0kts
15-Dec-18 14:47 43.566903 -116.219667 24 2848ft 0kts

Navigation Log

Ident Type
Flight plan parsing failed, navigation log unavailable